Time;durP1;ratioP1;P1;durP2;ratioP2;P2;SDS_P1;SDS_P2;PMS_P1;PMS_P2;Temp;Humidity;BMP_temperature;BMP_pressure;BME280_temperature;BME280_humidity;BME280_pressure;Samples;Min_cycle;Max_cycle;Signal;HPM_P1;HPM_P2
2024/04/04 00:01:00;;;;;;;2.73;1.03;;;13.10;99.90;;;;;;5098747;28;20427;-29
2024/04/04 00:03:28;;;;;;;5.57;1.50;;;13.10;99.90;;;;;;5086693;28;20548;-29
2024/04/04 00:05:57;;;;;;;3.17;1.20;;;13.10;99.90;;;;;;5099232;28;20420;-29
2024/04/04 00:08:23;;;;;;;2.60;1.43;;;13.10;99.90;;;;;;5097354;28;20427;-29
2024/04/04 00:10:50;;;;;;;2.70;0.90;;;13.10;99.90;;;;;;5099072;28;20433;-29
2024/04/04 00:13:16;;;;;;;4.83;1.37;;;13.10;99.90;;;;;;5099169;28;21019;-29
2024/04/04 00:15:43;;;;;;;2.90;1.30;;;13.10;99.90;;;;;;5059838;28;20428;-29
2024/04/04 00:18:09;;;;;;;1.63;1.23;;;13.10;99.90;;;;;;5100078;28;20676;-29
2024/04/04 00:20:39;;;;;;;1.90;0.90;;;13.10;99.90;;;;;;5080952;28;20456;-29
2024/04/04 00:23:05;;;;;;;4.07;1.83;;;13.10;99.90;;;;;;5080350;28;20216;-29
2024/04/04 00:25:32;;;;;;;4.90;1.30;;;13.10;99.90;;;;;;5099746;28;20766;-29
2024/04/04 00:27:58;;;;;;;1.70;1.40;;;13.00;99.90;;;;;;5080457;28;20910;-29
2024/04/04 00:30:24;;;;;;;2.13;1.00;;;13.00;99.90;;;;;;5081632;28;21003;-29
2024/04/04 00:32:50;;;;;;;1.43;1.00;;;13.00;99.90;;;;;;5099388;28;20482;-29
2024/04/04 00:35:16;;;;;;;1.60;1.23;;;13.00;99.90;;;;;;5098926;28;20762;-30
2024/04/04 00:37:47;;;;;;;1.10;1.00;;;13.00;99.90;;;;;;5079982;28;20452;-29
2024/04/04 00:40:14;;;;;;;4.03;1.20;;;13.00;99.90;;;;;;5099143;28;20451;-29
2024/04/04 00:42:40;;;;;;;2.33;1.20;;;13.00;99.90;;;;;;5097536;28;20561;-29
2024/04/04 00:45:06;;;;;;;1.70;1.10;;;13.00;99.90;;;;;;5095519;28;20774;-29
2024/04/04 00:47:33;;;;;;;2.60;1.13;;;13.00;99.90;;;;;;5078583;28;21224;-29
2024/04/04 00:49:58;;;;;;;2.87;1.00;;;13.00;99.90;;;;;;5098556;28;20955;-29
2024/04/04 00:52:27;;;;;;;2.20;0.90;;;13.00;99.90;;;;;;5098372;28;20421;-29
2024/04/04 00:54:58;;;;;;;3.07;1.30;;;13.00;99.90;;;;;;5098787;28;20450;-29
2024/04/04 00:57:24;;;;;;;2.40;1.23;;;13.00;99.90;;;;;;5062087;28;20438;-29
2024/04/04 00:59:54;;;;;;;2.63;1.33;;;13.00;99.90;;;;;;5099317;28;20447;-29
2024/04/04 01:02:24;;;;;;;1.50;1.20;;;13.00;99.90;;;;;;5097903;28;20456;-29
2024/04/04 01:04:51;;;;;;;2.70;1.10;;;13.00;99.90;;;;;;5079646;28;20462;-29
2024/04/04 01:07:21;;;;;;;2.77;1.10;;;12.90;99.90;;;;;;5094364;28;20436;-29
2024/04/04 01:09:47;;;;;;;2.83;1.00;;;12.90;99.90;;;;;;5082493;28;20560;-29
2024/04/04 01:12:13;;;;;;;3.27;1.43;;;12.90;99.90;;;;;;5096391;28;20452;-29
2024/04/04 01:14:40;;;;;;;1.70;1.10;;;12.90;99.90;;;;;;5100567;28;21259;-29
2024/04/04 01:17:11;;;;;;;2.13;1.50;;;12.90;99.90;;;;;;5081965;28;20428;-29
2024/04/04 01:19:37;;;;;;;3.00;1.50;;;12.90;99.90;;;;;;5100702;28;20498;-29
2024/04/04 01:22:03;;;;;;;2.27;1.20;;;12.90;99.90;;;;;;5064818;28;20463;-30
2024/04/04 01:24:31;;;;;;;1.40;1.23;;;12.90;99.90;;;;;;5064047;28;20460;-29
2024/04/04 01:26:59;;;;;;;4.00;1.43;;;12.90;99.90;;;;;;5079428;28;21152;-28
2024/04/04 01:29:24;;;;;;;3.20;1.77;;;12.90;99.90;;;;;;5080016;28;20464;-28
2024/04/04 01:31:50;;;;;;;3.20;1.30;;;12.90;99.90;;;;;;5081098;28;20385;-29
2024/04/04 01:34:16;;;;;;;4.87;1.60;;;12.90;99.90;;;;;;5064222;28;20438;-29
2024/04/04 01:36:45;;;;;;;3.20;1.20;;;12.90;99.90;;;;;;5069187;28;20589;-29
2024/04/04 01:39:14;;;;;;;3.27;2.00;;;12.90;99.90;;;;;;5087120;28;20446;-29
2024/04/04 01:41:46;;;;;;;2.50;1.17;;;12.90;99.90;;;;;;5099373;28;20441;-30
2024/04/04 01:44:15;;;;;;;2.20;1.13;;;12.90;99.90;;;;;;5086782;28;20440;-30
2024/04/04 01:46:43;;;;;;;4.70;1.27;;;12.80;99.90;;;;;;5064909;28;20501;-30
2024/04/04 01:49:15;;;;;;;3.23;1.17;;;12.80;99.90;;;;;;5084555;28;20470;-29
2024/04/04 01:51:42;;;;;;;3.60;1.50;;;12.80;99.90;;;;;;5079581;28;20443;-30
2024/04/04 01:54:09;;;;;;;2.97;1.43;;;12.80;99.90;;;;;;5081990;28;20506;-29
2024/04/04 01:56:35;;;;;;;2.70;1.20;;;12.80;99.90;;;;;;5061357;28;20429;-30
2024/04/04 01:59:01;;;;;;;4.17;1.10;;;12.80;99.90;;;;;;5098990;28;20436;-30
2024/04/04 02:01:27;;;;;;;4.23;1.20;;;12.80;99.90;;;;;;5069694;28;20439;-29
2024/04/04 02:03:53;;;;;;;4.07;1.80;;;12.80;99.90;;;;;;5099638;28;20826;-29
2024/04/04 02:06:19;;;;;;;2.83;1.63;;;12.80;99.90;;;;;;5060670;28;20428;-29
2024/04/04 02:08:45;;;;;;;5.37;1.70;;;12.80;99.90;;;;;;5100415;28;20440;-29
2024/04/04 02:11:13;;;;;;;2.50;1.23;;;12.80;99.90;;;;;;5083294;28;20432;-29
2024/04/04 02:13:39;;;;;;;4.67;1.40;;;12.80;99.90;;;;;;5084731;28;20783;-29
2024/04/04 02:16:10;;;;;;;1.60;0.90;;;12.80;99.90;;;;;;5063911;28;20427;-29
2024/04/04 02:18:36;;;;;;;2.10;1.30;;;12.80;99.90;;;;;;5088334;28;20884;-29
2024/04/04 02:21:02;;;;;;;1.60;1.30;;;12.80;99.90;;;;;;5105396;28;20427;-29
2024/04/04 02:23:31;;;;;;;6.13;1.67;;;12.80;99.90;;;;;;5084192;28;20558;-30
2024/04/04 02:25:59;;;;;;;5.80;1.33;;;12.80;99.90;;;;;;5105112;28;20456;-29
2024/04/04 02:28:25;;;;;;;3.57;1.30;;;12.80;99.90;;;;;;5090285;28;21024;-30
2024/04/04 02:30:51;;;;;;;2.80;1.30;;;12.80;99.90;;;;;;5084238;28;20426;-31
2024/04/04 02:33:22;;;;;;;2.70;1.40;;;12.80;99.90;;;;;;5101327;28;20477;-30
2024/04/04 02:35:57;;;;;;;2.10;1.37;;;12.80;99.90;;;;;;5098038;28;20463;-30
2024/04/04 02:38:24;;;;;;;2.97;1.40;;;12.80;99.90;;;;;;5083231;28;20601;-31
2024/04/04 02:40:51;;;;;;;3.43;1.20;;;12.70;99.90;;;;;;5067448;28;21415;-30
2024/04/04 02:43:20;;;;;;;4.70;1.23;;;12.70;99.90;;;;;;5045497;28;20560;-31
2024/04/04 02:45:46;;;;;;;5.87;1.37;;;12.70;99.90;;;;;;5098390;28;20445;-30
2024/04/04 02:48:12;;;;;;;2.67;1.20;;;12.80;99.90;;;;;;5100053;28;20814;-30
2024/04/04 02:50:38;;;;;;;2.73;1.47;;;12.70;99.90;;;;;;5099231;28;20440;-30
2024/04/04 02:53:06;;;;;;;3.87;1.30;;;12.70;99.90;;;;;;5065128;28;20459;-30
2024/04/04 02:55:38;;;;;;;2.20;1.30;;;12.70;99.90;;;;;;5102745;28;20416;-30
2024/04/04 02:58:04;;;;;;;4.20;1.30;;;12.70;99.90;;;;;;5084125;28;20444;-31
2024/04/04 03:00:37;;;;;;;4.30;1.47;;;12.70;99.90;;;;;;5088521;28;20432;-30
2024/04/04 03:03:06;;;;;;;2.00;1.40;;;12.70;99.90;;;;;;5104915;28;20467;-31
2024/04/04 03:05:40;;;;;;;4.70;2.00;;;12.70;99.90;;;;;;5104504;28;20598;-30
2024/04/04 03:08:08;;;;;;;2.20;1.47;;;12.70;99.90;;;;;;5203298;22;20536;-39
2024/04/04 03:10:37;;;;;;;2.80;1.40;;;12.70;99.90;;;;;;5104216;28;20421;-38
2024/04/04 03:13:04;;;;;;;6.27;1.60;;;12.70;99.90;;;;;;5069925;28;20426;-38
2024/04/04 03:15:33;;;;;;;4.67;1.77;;;12.70;99.90;;;;;;5103205;28;20416;-38
2024/04/04 03:18:01;;;;;;;2.17;1.80;;;12.70;99.90;;;;;;5076898;28;21635;-31
2024/04/04 03:20:30;;;;;;;2.50;1.53;;;12.70;99.90;;;;;;5101539;28;21140;-38
2024/04/04 03:22:58;;;;;;;3.77;1.30;;;12.70;99.90;;;;;;5101271;28;20550;-34
2024/04/04 03:25:29;;;;;;;2.83;1.17;;;12.70;99.90;;;;;;5081078;28;20456;-40
2024/04/04 03:27:55;;;;;;;1.83;1.27;;;12.70;99.90;;;;;;5099158;28;20452;-38
2024/04/04 03:30:24;;;;;;;3.90;1.20;;;12.70;99.90;;;;;;5101667;28;20475;-39
2024/04/04 03:32:52;;;;;;;4.07;1.60;;;12.70;99.90;;;;;;5079760;28;21325;-35
2024/04/04 03:35:21;;;;;;;4.93;1.33;;;12.70;99.90;;;;;;5098407;28;21068;-36
2024/04/04 03:37:47;;;;;;;2.80;1.40;;;12.70;99.90;;;;;;5095573;28;20551;-37
2024/04/04 03:40:13;;;;;;;2.13;1.33;;;12.70;99.90;;;;;;5092010;28;20479;-37
2024/04/04 03:42:39;;;;;;;3.37;1.57;;;12.70;99.90;;;;;;5101378;28;20550;-38
2024/04/04 03:45:05;;;;;;;2.77;1.47;;;12.70;99.90;;;;;;5067367;28;20860;-35
2024/04/04 03:47:35;;;;;;;2.97;1.57;;;12.70;99.90;;;;;;5046437;28;20405;-32
2024/04/04 03:50:02;;;;;;;2.60;1.33;;;12.70;99.90;;;;;;5093694;28;20431;-35
2024/04/04 03:52:30;;;;;;;4.60;1.50;;;12.60;99.90;;;;;;5092356;28;20496;-39
2024/04/04 03:54:57;;;;;;;3.33;1.40;;;12.70;99.90;;;;;;5087426;28;20421;-31
2024/04/04 03:57:24;;;;;;;3.37;1.37;;;12.70;99.90;;;;;;5080733;28;20448;-38
2024/04/04 03:59:55;;;;;;;2.77;1.50;;;12.70;99.90;;;;;;5063755;28;20432;-38
2024/04/04 04:02:22;;;;;;;1.50;1.40;;;12.60;99.90;;;;;;5086357;28;21330;-39
2024/04/04 04:04:51;;;;;;;3.80;1.67;;;12.60;99.90;;;;;;5099794;28;20509;-36
2024/04/04 04:07:17;;;;;;;2.57;1.27;;;12.60;99.90;;;;;;5065596;28;20850;-38
2024/04/04 04:09:42;;;;;;;2.80;1.50;;;12.60;99.90;;;;;;5089121;28;20467;-38
2024/04/04 04:12:08;;;;;;;5.07;1.70;;;12.60;99.90;;;;;;5100879;28;20424;-37
2024/04/04 04:14:34;;;;;;;2.33;1.20;;;12.60;99.90;;;;;;5099190;28;20211;-37
2024/04/04 04:17:01;;;;;;;2.03;1.40;;;12.60;99.90;;;;;;5074041;28;21126;-37
2024/04/04 04:19:26;;;;;;;3.03;1.50;;;12.60;99.90;;;;;;5081038;28;20974;-38
2024/04/04 04:21:52;;;;;;;3.80;1.60;;;12.60;99.90;;;;;;5096016;28;20444;-38
2024/04/04 04:24:19;;;;;;;2.80;1.40;;;12.60;99.90;;;;;;5090685;28;20214;-38
2024/04/04 04:26:44;;;;;;;3.47;1.30;;;12.60;99.90;;;;;;5099396;28;20788;-38
2024/04/04 04:29:13;;;;;;;1.97;1.40;;;12.60;99.90;;;;;;5100743;28;20428;-40
2024/04/04 04:31:39;;;;;;;2.80;1.57;;;12.60;99.90;;;;;;5089558;28;21013;-39
2024/04/04 04:34:10;;;;;;;1.70;1.50;;;12.60;99.90;;;;;;5080376;28;20519;-38
2024/04/04 04:36:59;;;;;;;5.10;2.30;;;12.60;99.90;;;;;;5090418;28;20420;-38
2024/04/04 04:39:25;;;;;;;2.30;1.40;;;12.60;99.90;;;;;;5080278;28;20449;-40
2024/04/04 04:41:51;;;;;;;4.27;1.27;;;12.60;99.90;;;;;;5044422;28;20429;-37
2024/04/04 04:44:17;;;;;;;1.80;1.40;;;12.60;99.90;;;;;;5080886;28;21076;-38
2024/04/04 04:46:43;;;;;;;2.17;1.60;;;12.60;99.90;;;;;;5075107;28;20431;-37
2024/04/04 04:49:09;;;;;;;1.97;1.40;;;12.60;99.90;;;;;;5063350;28;20774;-39
2024/04/04 04:51:35;;;;;;;3.33;1.60;;;12.60;99.90;;;;;;5080761;28;20830;-39
2024/04/04 04:54:05;;;;;;;1.60;1.50;;;12.60;99.90;;;;;;5097085;28;21340;-38
2024/04/04 04:56:33;;;;;;;1.90;1.37;;;12.60;99.90;;;;;;5064098;28;20451;-40
2024/04/04 04:59:03;;;;;;;4.10;1.37;;;12.60;99.90;;;;;;5093882;28;20429;-37
2024/04/04 05:01:32;;;;;;;4.37;1.90;;;12.60;99.90;;;;;;5061300;28;20436;-41
2024/04/04 05:04:01;;;;;;;1.70;1.50;;;12.60;99.90;;;;;;5098505;28;20439;-35
2024/04/04 05:06:28;;;;;;;2.60;1.53;;;12.60;99.90;;;;;;5082664;28;20425;-37
2024/04/04 05:08:55;;;;;;;2.60;1.60;;;12.60;99.90;;;;;;5060725;28;20540;-38
2024/04/04 05:11:22;;;;;;;2.97;1.73;;;12.60;99.90;;;;;;5081400;28;20479;-32
2024/04/04 05:13:48;;;;;;;1.70;1.23;;;12.60;99.90;;;;;;5068862;28;20417;-37
2024/04/04 05:16:17;;;;;;;2.93;1.70;;;12.60;99.90;;;;;;5089137;28;21064;-36
2024/04/04 05:18:43;;;;;;;1.97;1.40;;;12.60;99.90;;;;;;5085257;28;21428;-41
2024/04/04 05:21:11;;;;;;;4.13;1.40;;;12.60;99.90;;;;;;5064280;28;20420;-38
2024/04/04 05:23:37;;;;;;;2.50;1.60;;;12.60;99.90;;;;;;5065065;28;20788;-39
2024/04/04 05:26:03;;;;;;;3.33;1.30;;;12.60;99.90;;;;;;5077223;28;20485;-37
2024/04/04 05:28:30;;;;;;;3.43;1.50;;;12.60;99.90;;;;;;5059727;28;20444;-38
2024/04/04 05:31:03;;;;;;;3.70;1.73;;;12.60;99.90;;;;;;5085175;28;20483;-40
2024/04/04 05:33:29;;;;;;;3.00;1.40;;;12.60;99.90;;;;;;5066784;28;20462;-38
2024/04/04 05:35:55;;;;;;;3.33;1.40;;;12.60;99.90;;;;;;5085740;28;20452;-38
2024/04/04 05:38:21;;;;;;;4.70;1.90;;;12.60;99.90;;;;;;5061365;28;20227;-39
2024/04/04 05:40:47;;;;;;;3.50;1.47;;;12.60;99.90;;;;;;5056283;28;21005;-41
2024/04/04 05:43:17;;;;;;;2.50;1.43;;;12.60;99.90;;;;;;5070546;28;20916;-39
2024/04/04 05:45:46;;;;;;;2.27;1.50;;;12.60;99.90;;;;;;5087249;28;20527;-35
2024/04/04 05:48:11;;;;;;;3.40;1.50;;;12.60;99.90;;;;;;5078434;28;20437;-38
2024/04/04 05:50:41;;;;;;;3.20;1.83;;;12.60;99.90;;;;;;5089013;28;20413;-37
2024/04/04 05:53:10;;;;;;;2.57;1.33;;;12.60;99.90;;;;;;5060519;28;20481;-41
2024/04/04 05:55:35;;;;;;;2.63;1.50;;;12.60;99.90;;;;;;5083020;28;20412;-38
2024/04/04 05:58:02;;;;;;;2.70;1.50;;;12.60;99.90;;;;;;5075665;28;20812;-42
2024/04/04 06:00:28;;;;;;;3.53;1.80;;;12.60;99.90;;;;;;5080290;28;20599;-42
2024/04/04 06:02:54;;;;;;;2.23;1.70;;;12.60;99.90;;;;;;5078299;28;20517;-42
2024/04/04 06:05:20;;;;;;;3.50;1.80;;;12.60;99.90;;;;;;5095448;28;20865;-36
2024/04/04 06:07:47;;;;;;;4.80;1.77;;;12.50;99.90;;;;;;5073014;28;20433;-36
2024/04/04 06:10:13;;;;;;;3.00;1.73;;;12.60;99.90;;;;;;5103017;28;20459;-41
2024/04/04 06:12:42;;;;;;;2.30;1.43;;;12.60;99.90;;;;;;5085297;28;20433;-38
2024/04/04 06:15:11;;;;;;;3.30;1.90;;;12.60;99.90;;;;;;5096276;28;20430;-37
2024/04/04 06:17:38;;;;;;;1.47;1.37;;;12.60;99.90;;;;;;5061427;28;20814;-41
2024/04/04 06:20:05;;;;;;;1.97;1.60;;;12.60;99.90;;;;;;5100224;28;20849;-34
2024/04/04 06:22:35;;;;;;;4.93;2.73;;;12.60;99.90;;;;;;5099949;28;21175;-37
2024/04/04 06:25:03;;;;;;;2.67;1.40;;;12.60;99.90;;;;;;5059604;28;20432;-33
2024/04/04 06:27:29;;;;;;;3.87;1.50;;;12.60;99.90;;;;;;5081974;28;20989;-34
2024/04/04 06:29:55;;;;;;;4.80;1.40;;;12.60;99.90;;;;;;5103496;28;20428;-39
2024/04/04 06:32:22;;;;;;;1.90;1.30;;;12.60;99.90;;;;;;5096758;28;20473;-37
2024/04/04 06:34:51;;;;;;;3.13;1.80;;;12.60;99.90;;;;;;5083318;28;20830;-40
2024/04/04 06:37:19;;;;;;;4.40;1.30;;;12.60;99.90;;;;;;5080989;28;21107;-33
2024/04/04 06:39:47;;;;;;;1.70;1.50;;;12.60;99.90;;;;;;5078017;28;20463;-40
2024/04/04 06:42:14;;;;;;;2.13;1.60;;;12.60;99.90;;;;;;5078479;28;20556;-37
2024/04/04 06:44:42;;;;;;;3.37;1.63;;;12.60;99.90;;;;;;5081279;28;20520;-36
2024/04/04 06:47:10;;;;;;;3.80;1.47;;;12.60;99.90;;;;;;5102209;28;20407;-41
2024/04/04 06:49:41;;;;;;;4.23;1.47;;;12.60;99.90;;;;;;5062447;28;20452;-39
2024/04/04 06:52:10;;;;;;;3.77;1.43;;;12.60;99.90;;;;;;5100839;28;20424;-38
2024/04/04 06:54:38;;;;;;;3.00;1.50;;;12.60;99.90;;;;;;5102341;28;20412;-32
2024/04/04 06:57:04;;;;;;;2.27;1.57;;;12.60;99.90;;;;;;5097780;28;20515;-37
2024/04/04 06:59:30;;;;;;;3.10;1.30;;;12.60;99.90;;;;;;5097426;28;20947;-41
2024/04/04 07:01:56;;;;;;;2.00;1.50;;;12.60;99.90;;;;;;5097732;28;20480;-33
2024/04/04 07:04:22;;;;;;;2.10;1.50;;;12.60;99.90;;;;;;5102368;28;20477;-37
2024/04/04 07:06:51;;;;;;;2.77;1.30;;;12.60;99.90;;;;;;5101260;28;20436;-38
2024/04/04 07:09:17;;;;;;;1.80;1.50;;;12.60;99.90;;;;;;5049920;28;20487;-39
2024/04/04 07:11:47;;;;;;;2.43;1.23;;;12.60;99.90;;;;;;5103374;28;20512;-39
2024/04/04 07:14:15;;;;;;;1.87;1.30;;;12.60;99.90;;;;;;5081680;28;20440;-39
2024/04/04 07:16:44;;;;;;;2.27;1.70;;;12.60;99.90;;;;;;5101751;28;20421;-41
2024/04/04 07:19:10;;;;;;;2.70;1.30;;;12.60;99.90;;;;;;5101542;28;20445;-38
2024/04/04 07:21:36;;;;;;;2.57;1.67;;;12.60;99.90;;;;;;5085752;28;20405;-39
2024/04/04 07:24:04;;;;;;;5.23;1.40;;;12.60;99.90;;;;;;5065063;28;20469;-37
2024/04/04 07:26:33;;;;;;;1.90;1.27;;;12.60;99.90;;;;;;5099167;28;20436;-33
2024/04/04 07:29:02;;;;;;;3.30;1.60;;;12.60;99.90;;;;;;5066556;28;20458;-39
2024/04/04 07:31:29;;;;;;;2.23;1.30;;;12.60;99.90;;;;;;5083563;28;20507;-37
2024/04/04 07:34:00;;;;;;;5.23;1.40;;;12.60;99.90;;;;;;5083664;28;20452;-38
2024/04/04 07:36:26;;;;;;;2.57;1.60;;;12.60;99.90;;;;;;5099433;28;20419;-35
2024/04/04 07:38:53;;;;;;;2.73;1.43;;;12.60;99.90;;;;;;5088595;28;20858;-41
2024/04/04 07:41:21;;;;;;;1.73;1.10;;;12.60;99.90;;;;;;5078569;28;20982;-38
2024/04/04 07:43:47;;;;;;;1.77;1.20;;;12.60;99.90;;;;;;5076391;28;20467;-32
2024/04/04 07:46:14;;;;;;;3.23;1.37;;;12.60;99.90;;;;;;5091492;28;20426;-36
2024/04/04 07:48:46;;;;;;;1.90;1.33;;;12.60;99.90;;;;;;5099527;28;20519;-39
2024/04/04 07:51:17;;;;;;;3.63;1.73;;;12.60;99.90;;;;;;5098133;28;21229;-36
2024/04/04 07:53:43;;;;;;;3.93;1.50;;;12.70;99.90;;;;;;5085184;28;20490;-32
2024/04/04 07:56:11;;;;;;;3.10;1.37;;;12.70;99.90;;;;;;5077661;28;20433;-35
2024/04/04 07:58:38;;;;;;;3.57;1.90;;;12.70;99.90;;;;;;5094252;28;20445;-36
2024/04/04 08:01:04;;;;;;;2.30;1.40;;;12.70;99.90;;;;;;5081481;28;20464;-37
2024/04/04 08:03:33;;;;;;;3.10;1.00;;;12.70;99.90;;;;;;5093119;28;20530;-35
2024/04/04 08:06:02;;;;;;;2.90;1.43;;;12.70;99.90;;;;;;5074005;28;20484;-37
2024/04/04 08:08:28;;;;;;;2.80;1.37;;;12.70;99.90;;;;;;5074003;28;20450;-35
2024/04/04 08:10:55;;;;;;;4.77;1.40;;;12.70;99.90;;;;;;5089200;28;20428;-32
2024/04/04 08:13:22;;;;;;;2.70;1.47;;;12.70;99.90;;;;;;5055296;28;20537;-41
2024/04/04 08:15:51;;;;;;;2.40;1.37;;;12.70;99.90;;;;;;5083317;28;20425;-39
2024/04/04 08:18:17;;;;;;;2.07;1.37;;;12.70;99.90;;;;;;5074798;28;20999;-35
2024/04/04 08:20:47;;;;;;;2.33;1.27;;;12.70;99.90;;;;;;5071047;28;20458;-31
2024/04/04 08:23:16;;;;;;;1.97;1.23;;;12.70;99.90;;;;;;5099044;28;20491;-38
2024/04/04 08:25:55;;;;;;;1.30;1.10;;;12.70;99.90;;;;;;5080605;28;21312;-40
2024/04/04 08:28:21;;;;;;;3.13;1.30;;;12.70;99.90;;;;;;5097519;28;20461;-36
2024/04/04 08:31:02;;;;;;;4.83;1.20;;;12.70;99.90;;;;;;5099344;28;20416;-34
2024/04/04 08:33:31;;;;;;;2.43;1.00;;;12.70;99.90;;;;;;5080316;28;20495;-39
2024/04/04 08:35:58;;;;;;;1.73;1.00;;;12.70;99.90;;;;;;5098452;28;20425;-36
2024/04/04 08:38:25;;;;;;;1.27;0.90;;;12.70;99.90;;;;;;5097258;28;21038;-36
2024/04/04 08:40:56;;;;;;;1.47;1.00;;;12.70;99.90;;;;;;5098998;28;20431;-35
2024/04/04 08:43:24;;;;;;;1.47;0.90;;;12.70;99.90;;;;;;5098518;28;20448;-35
2024/04/04 08:45:50;;;;;;;1.80;1.30;;;12.80;99.90;;;;;;5099628;28;20427;-38
2024/04/04 08:48:22;;;;;;;1.13;1.00;;;12.70;99.90;;;;;;5099906;28;20493;-38
2024/04/04 08:50:51;;;;;;;1.50;0.80;;;12.70;99.90;;;;;;5096081;28;20418;-32
2024/04/04 08:53:22;;;;;;;2.13;1.30;;;12.70;99.90;;;;;;5045772;28;20469;-32
2024/04/04 08:55:51;;;;;;;1.77;0.87;;;12.70;99.90;;;;;;5088958;28;20500;-37
2024/04/04 08:58:19;;;;;;;1.80;1.10;;;12.80;99.90;;;;;;5093041;28;20427;-37
2024/04/04 09:00:46;;;;;;;1.37;1.07;;;12.80;99.90;;;;;;5099747;28;20416;-42
2024/04/04 09:03:13;;;;;;;3.70;1.03;;;12.70;99.90;;;;;;5101757;28;20473;-34
2024/04/04 09:05:46;;;;;;;2.93;0.87;;;12.70;99.90;;;;;;5098325;28;20765;-35
2024/04/04 09:08:12;;;;;;;0.83;0.70;;;12.70;99.90;;;;;;5091773;28;20863;-39
2024/04/04 09:10:39;;;;;;;1.20;1.10;;;12.80;99.90;;;;;;5090298;28;20515;-36
2024/04/04 09:13:07;;;;;;;1.47;0.70;;;12.80;99.90;;;;;;5098136;28;20508;-36
2024/04/04 09:15:40;;;;;;;2.43;0.83;;;12.80;99.90;;;;;;5085805;28;20421;-34
2024/04/04 09:18:14;;;;;;;1.47;0.80;;;12.80;99.90;;;;;;5090082;28;21009;-34
2024/04/04 09:20:41;;;;;;;1.97;1.03;;;12.80;99.90;;;;;;5080090;28;20444;-35
2024/04/04 09:23:09;;;;;;;0.90;0.70;;;12.80;99.90;;;;;;5097974;28;20491;-40
2024/04/04 09:25:38;;;;;;;3.73;1.63;;;12.80;99.90;;;;;;5096435;28;20503;-42
2024/04/04 09:28:09;;;;;;;0.90;0.90;;;12.80;99.90;;;;;;5085389;28;20481;-36
2024/04/04 09:30:40;;;;;;;1.40;0.90;;;12.80;99.90;;;;;;5070081;28;20435;-41
2024/04/04 09:33:09;;;;;;;3.10;0.90;;;12.80;99.90;;;;;;5068047;28;20533;-38
2024/04/04 09:35:40;;;;;;;1.70;1.10;;;12.90;99.90;;;;;;5088389;28;20430;-36
2024/04/04 09:38:08;;;;;;;1.17;0.77;;;12.90;99.90;;;;;;5098217;28;20451;-41
2024/04/04 09:40:37;;;;;;;1.77;0.87;;;12.90;99.90;;;;;;5099220;28;20501;-39
2024/04/04 09:43:05;;;;;;;0.97;0.70;;;12.90;99.90;;;;;;5072703;28;20534;-34
2024/04/04 09:45:33;;;;;;;1.70;0.70;;;12.90;99.90;;;;;;5095539;28;20550;-34
2024/04/04 09:48:02;;;;;;;2.03;0.93;;;12.90;99.90;;;;;;5089047;28;20427;-38
2024/04/04 09:50:31;;;;;;;2.93;0.87;;;12.90;99.90;;;;;;5074136;28;20480;-38
2024/04/04 09:52:57;;;;;;;0.90;0.60;;;12.90;99.90;;;;;;5088246;28;20934;-41
2024/04/04 09:55:26;;;;;;;2.10;0.90;;;12.90;99.90;;;;;;5076202;28;20436;-35
2024/04/04 09:57:57;;;;;;;2.77;0.80;;;13.00;99.90;;;;;;5080920;28;21006;-39
2024/04/04 10:00:27;;;;;;;1.77;0.77;;;13.00;99.90;;;;;;5062967;28;21059;-38
2024/04/04 10:02:58;;;;;;;1.90;0.80;;;13.00;99.90;;;;;;5086773;28;20643;-37
2024/04/04 10:05:30;;;;;;;1.23;0.80;;;13.00;99.90;;;;;;5075458;28;21106;-35
2024/04/04 10:08:12;;;;;;;0.93;0.70;;;13.00;99.90;;;;;;5083794;28;20436;-38
2024/04/04 10:10:39;;;;;;;1.93;0.80;;;13.00;99.90;;;;;;5080593;28;20497;-40
2024/04/04 10:13:07;;;;;;;0.97;0.87;;;13.00;99.90;;;;;;5093388;28;20438;-33
2024/04/04 10:15:50;;;;;;;1.40;0.80;;;13.00;99.90;;;;;;5074156;28;20431;-38
2024/04/04 10:18:22;;;;;;;1.27;0.80;;;13.10;99.90;;;;;;5099410;28;21039;-36
2024/04/04 10:20:58;;;;;;;1.73;0.90;;;13.10;99.90;;;;;;5100315;28;20425;-37
2024/04/04 10:23:30;;;;;;;0.90;0.70;;;13.10;99.90;;;;;;5099544;28;20471;-37
2024/04/04 10:26:09;;;;;;;1.30;0.90;;;13.10;99.90;;;;;;5081742;28;20417;-39
2024/04/04 10:28:36;;;;;;;1.00;0.70;;;13.10;99.90;;;;;;5066382;28;21295;-39
2024/04/04 10:31:02;;;;;;;2.50;0.90;;;13.10;99.90;;;;;;5087098;28;20414;-34
2024/04/04 10:33:30;;;;;;;1.00;0.90;;;13.20;99.90;;;;;;5097819;28;20417;-41
2024/04/04 10:36:01;;;;;;;2.70;0.97;;;13.20;99.90;;;;;;5075598;28;20636;-37
2024/04/04 10:38:27;;;;;;;1.03;0.87;;;13.20;99.90;;;;;;5095362;28;20846;-40
2024/04/04 10:40:55;;;;;;;1.10;0.60;;;13.20;99.90;;;;;;5098450;28;20446;-40
2024/04/04 10:43:21;;;;;;;1.60;1.00;;;13.20;99.90;;;;;;5101122;28;20476;-35
2024/04/04 10:45:49;;;;;;;1.73;1.13;;;13.20;99.90;;;;;;5090764;28;20441;-36
2024/04/04 10:48:18;;;;;;;1.50;0.80;;;13.20;99.90;;;;;;5085189;28;20447;-39
2024/04/04 10:50:44;;;;;;;1.20;0.83;;;13.20;99.90;;;;;;5091542;28;20414;-43
2024/04/04 10:53:10;;;;;;;1.40;0.87;;;13.30;99.90;;;;;;5090770;28;20500;-37
2024/04/04 10:55:38;;;;;;;1.37;1.03;;;13.30;99.90;;;;;;5101588;28;20423;-34
2024/04/04 10:58:08;;;;;;;2.10;1.00;;;13.30;99.90;;;;;;5101931;28;20424;-39
2024/04/04 11:00:35;;;;;;;2.07;1.20;;;13.30;99.90;;;;;;5049324;28;20464;-42
2024/04/04 11:03:03;;;;;;;2.80;1.50;;;13.30;99.90;;;;;;5101310;28;21181;-35
2024/04/04 11:05:29;;;;;;;2.33;1.27;;;13.30;99.90;;;;;;5101733;28;20400;-42
2024/04/04 11:07:59;;;;;;;1.77;0.90;;;13.30;99.90;;;;;;5090273;28;20424;-38
2024/04/04 11:10:26;;;;;;;1.87;0.93;;;13.40;99.90;;;;;;5097008;28;20453;-39
2024/04/04 11:12:52;;;;;;;2.07;1.10;;;13.40;99.90;;;;;;5100561;28;20426;-38
2024/04/04 11:15:21;;;;;;;1.70;1.00;;;13.40;99.90;;;;;;5077198;28;20506;-35
2024/04/04 11:17:52;;;;;;;3.07;1.10;;;13.40;99.90;;;;;;5091867;28;21023;-37
2024/04/04 11:20:19;;;;;;;2.10;1.00;;;13.40;99.90;;;;;;5101084;28;20444;-40
2024/04/04 11:22:45;;;;;;;2.80;1.10;;;13.40;99.90;;;;;;5102763;28;20471;-41
2024/04/04 11:25:11;;;;;;;1.83;0.90;;;13.40;99.90;;;;;;5087523;28;20480;-36
2024/04/04 11:27:39;;;;;;;1.47;0.97;;;13.40;99.90;;;;;;5095476;28;20445;-41
2024/04/04 11:30:10;;;;;;;2.63;1.00;;;13.40;99.90;;;;;;5100600;28;20470;-41
2024/04/04 11:32:36;;;;;;;1.67;1.07;;;13.50;99.90;;;;;;5085499;28;21312;-40
2024/04/04 11:35:08;;;;;;;1.60;1.00;;;13.50;99.90;;;;;;5069956;28;20468;-32
2024/04/04 11:37:36;;;;;;;2.47;0.90;;;13.50;99.90;;;;;;5086590;28;20432;-39
2024/04/04 11:40:03;;;;;;;0.90;0.80;;;13.50;99.90;;;;;;5063210;28;20514;-34
2024/04/04 11:42:29;;;;;;;1.30;0.87;;;13.50;99.90;;;;;;5078656;28;20496;-39
2024/04/04 11:44:55;;;;;;;2.23;0.93;;;13.50;99.90;;;;;;5063428;28;20480;-40
2024/04/04 11:47:27;;;;;;;1.20;0.83;;;13.50;99.90;;;;;;5056486;28;20743;-43
2024/04/04 11:49:57;;;;;;;4.20;0.97;;;13.50;99.90;;;;;;5080526;28;20567;-40
2024/04/04 11:52:23;;;;;;;2.00;1.00;;;13.50;99.90;;;;;;5086226;28;20963;-37
2024/04/04 11:54:52;;;;;;;2.20;1.10;;;13.60;99.90;;;;;;5086621;28;21093;-38
2024/04/04 11:57:22;;;;;;;1.70;1.00;;;13.50;99.90;;;;;;5089031;28;20417;-40
2024/04/04 11:59:48;;;;;;;1.53;0.80;;;13.60;99.90;;;;;;5088438;28;20456;-42
2024/04/04 12:02:14;;;;;;;2.67;1.27;;;13.60;99.90;;;;;;5085073;28;20461;-39
2024/04/04 12:04:43;;;;;;;2.60;0.80;;;13.60;99.90;;;;;;5071405;28;21024;-41
2024/04/04 12:07:13;;;;;;;2.47;1.00;;;13.60;99.90;;;;;;5058988;28;20446;-40
2024/04/04 12:09:40;;;;;;;1.83;1.07;;;13.60;99.90;;;;;;5073685;28;21070;-40
2024/04/04 12:12:08;;;;;;;2.40;1.00;;;13.60;99.90;;;;;;5080150;28;20451;-37
2024/04/04 12:14:38;;;;;;;1.20;0.80;;;13.60;99.90;;;;;;5081237;28;20468;-35
2024/04/04 12:17:06;;;;;;;2.80;1.00;;;13.60;99.90;;;;;;5083061;28;20449;-36
2024/04/04 12:19:34;;;;;;;0.83;0.70;;;13.60;99.90;;;;;;5064318;28;20453;-43
2024/04/04 12:22:00;;;;;;;1.60;0.93;;;13.60;99.90;;;;;;5078513;28;20423;-43
2024/04/04 12:24:26;;;;;;;2.47;1.00;;;13.60;99.90;;;;;;5098101;28;20421;-43
2024/04/04 12:26:53;;;;;;;1.63;1.00;;;13.60;99.90;;;;;;5056530;28;20427;-42
2024/04/04 12:29:20;;;;;;;2.00;1.00;;;13.60;99.90;;;;;;5079179;28;20459;-44
2024/04/04 12:31:46;;;;;;;5.43;1.00;;;13.60;99.90;;;;;;5060777;28;20451;-43
2024/04/04 12:34:15;;;;;;;2.80;0.97;;;13.60;99.90;;;;;;5074775;28;20425;-43
2024/04/04 12:36:43;;;;;;;4.17;1.23;;;13.60;99.90;;;;;;5097820;28;20426;-42
2024/04/04 12:39:13;;;;;;;2.00;1.10;;;13.60;99.90;;;;;;5044997;28;20448;-43
2024/04/04 12:41:39;;;;;;;2.87;1.23;;;13.70;99.90;;;;;;5061126;28;20428;-41
2024/04/04 12:44:05;;;;;;;2.20;1.07;;;13.70;99.90;;;;;;5078267;28;20478;-41
2024/04/04 12:46:32;;;;;;;4.80;1.17;;;13.70;99.90;;;;;;5060949;28;20448;-42
2024/04/04 12:48:59;;;;;;;3.23;1.33;;;13.70;99.90;;;;;;5096118;28;20558;-42
2024/04/04 12:51:28;;;;;;;3.97;1.10;;;13.70;99.90;;;;;;5090267;28;20419;-43